Terminal Aerodrome Forecast
Issued by NWS

Current Version | Previous Version | Text Only | Print | Product List | Glossary On
Versions: 1 2 3 4 5 6 7 8 9 10 11 12 13
000 FTUS41 KBTV 312336 TAFMPV TAF KMPV 312336Z 0100/0124 03004KT P6SM OVC050 FM011800 35011KT P6SM VCSH OVC025=

USA.gov is the U.S. government's official web portal to all federal, state and local government web resources and services.